Time;durP1;ratioP1;P1;durP2;ratioP2;P2;SDS_P1;SDS_P2;PMS_P1;PMS_P2;Temp;Humidity;BMP_temperature;BMP_pressure;BME280_temperature;BME280_humidity;BME280_pressure;Samples;Min_cycle;Max_cycle;Signal;HPM_P1;HPM_P2
2022/08/22 00:01:03;;;;;;;8.48;2.97;;;;;;;;;;5035328;28;20041;-62
2022/08/22 00:03:49;;;;;;;7.50;2.90;;;;;;;;;;5023255;28;20083;-61
2022/08/22 00:06:33;;;;;;;6.43;3.70;;;;;;;;;;5028790;28;20065;-62
2022/08/22 00:09:18;;;;;;;7.05;2.72;;;;;;;;;;5036888;28;20041;-61
2022/08/22 00:11:50;;;;;;;6.95;2.95;;;;;;;;;;5035715;28;20033;-62
2022/08/22 00:14:21;;;;;;;10.63;3.60;;;;;;;;;;5035623;28;20097;-61
2022/08/22 00:16:54;;;;;;;10.10;3.17;;;;;;;;;;5036480;28;20099;-62
2022/08/22 00:19:24;;;;;;;8.90;2.90;;;;;;;;;;5036650;28;20133;-62
2022/08/22 00:21:59;;;;;;;10.65;3.35;;;;;;;;;;5035260;28;20048;-62
2022/08/22 00:24:41;;;;;;;5.97;3.40;;;;;;;;;;5035667;28;20042;-62
2022/08/22 00:27:14;;;;;;;9.65;4.90;;;;;;;;;;5054971;28;20048;-62
2022/08/22 00:29:46;;;;;;;6.78;3.40;;;;;;;;;;5055376;28;20045;-61
2022/08/22 00:32:23;;;;;;;8.20;3.33;;;;;;;;;;5055482;28;20075;-61
2022/08/22 00:34:52;;;;;;;6.30;3.40;;;;;;;;;;5055550;28;20032;-61
2022/08/22 00:37:22;;;;;;;8.45;3.22;;;;;;;;;;5055285;28;20429;-61
2022/08/22 00:40:07;;;;;;;11.02;3.42;;;;;;;;;;5055282;28;20068;-61
2022/08/22 00:42:47;;;;;;;6.28;3.08;;;;;;;;;;5056022;28;20119;-61
2022/08/22 00:45:29;;;;;;;13.55;2.90;;;;;;;;;;5054926;28;20063;-62
2022/08/22 00:48:01;;;;;;;8.73;3.47;;;;;;;;;;5055278;28;20037;-62
2022/08/22 00:50:43;;;;;;;10.88;3.63;;;;;;;;;;5054686;28;20044;-62
2022/08/22 00:53:25;;;;;;;7.97;3.45;;;;;;;;;;5054681;28;20040;-61
2022/08/22 00:55:51;;;;;;;9.35;3.60;;;;;;;;;;5054387;28;20040;-62
2022/08/22 00:58:29;;;;;;;8.23;3.65;;;;;;;;;;5055402;28;20055;-62
2022/08/22 01:01:00;;;;;;;9.38;4.00;;;;;;;;;;5054045;28;20045;-62
2022/08/22 01:03:46;;;;;;;11.40;3.90;;;;;;;;;;5035161;28;20041;-62
2022/08/22 01:06:12;;;;;;;6.22;3.40;;;;;;;;;;5032305;28;20044;-62
2022/08/22 01:08:58;;;;;;;8.40;4.07;;;;;;;;;;5032467;28;20049;-62
2022/08/22 01:11:24;;;;;;;9.60;3.92;;;;;;;;;;5032708;28;20033;-62
2022/08/22 01:13:56;;;;;;;11.15;4.47;;;;;;;;;;5033081;28;20037;-62
2022/08/22 01:16:22;;;;;;;12.98;4.43;;;;;;;;;;5034146;28;20442;-62
2022/08/22 01:18:51;;;;;;;10.38;4.45;;;;;;;;;;5033181;28;20048;-62
2022/08/22 01:21:36;;;;;;;11.05;4.60;;;;;;;;;;5032232;28;20072;-62
2022/08/22 01:24:21;;;;;;;10.13;4.43;;;;;;;;;;5032768;28;20205;-62
2022/08/22 01:27:06;;;;;;;6.93;4.65;;;;;;;;;;5048323;28;20037;-62
2022/08/22 01:29:50;;;;;;;8.95;4.45;;;;;;;;;;5052283;28;20048;-62
2022/08/22 01:32:26;;;;;;;13.20;5.10;;;;;;;;;;5054289;28;20105;-62
2022/08/22 01:35:07;;;;;;;9.13;4.20;;;;;;;;;;5054184;28;20415;-62
2022/08/22 01:37:52;;;;;;;13.57;4.60;;;;;;;;;;5056631;28;20040;-62
2022/08/22 01:40:36;;;;;;;12.38;4.53;;;;;;;;;;5056882;28;20484;-62
2022/08/22 01:43:02;;;;;;;8.70;4.60;;;;;;;;;;5056899;28;20103;-62
2022/08/22 01:45:41;;;;;;;7.40;4.13;;;;;;;;;;5057359;28;20402;-62
2022/08/22 01:48:14;;;;;;;7.60;4.00;;;;;;;;;;5056894;28;20040;-62
2022/08/22 01:50:46;;;;;;;9.65;4.60;;;;;;;;;;5056611;28;20120;-62
2022/08/22 01:53:42;;;;;;;9.70;4.38;;;;;;;;;;5057013;28;20532;-62
2022/08/22 01:56:08;;;;;;;8.05;4.20;;;;;;;;;;4968128;28;20059;-62
2022/08/22 01:58:38;;;;;;;13.90;5.07;;;;;;;;;;5056830;28;20037;-62
2022/08/22 02:01:04;;;;;;;9.10;3.90;;;;;;;;;;5053815;28;20040;-62
2022/08/22 02:03:36;;;;;;;11.52;4.28;;;;;;;;;;5037208;28;20128;-62
2022/08/22 02:06:06;;;;;;;8.43;3.97;;;;;;;;;;5036750;28;20037;-62
2022/08/22 02:08:38;;;;;;;9.73;4.03;;;;;;;;;;5036322;28;20045;-62
2022/08/22 02:11:06;;;;;;;10.10;3.97;;;;;;;;;;5037275;28;20052;-62
2022/08/22 02:13:45;;;;;;;7.72;4.13;;;;;;;;;;5036034;28;20053;-62
2022/08/22 02:16:17;;;;;;;9.25;4.60;;;;;;;;;;5036690;28;20048;-62
2022/08/22 02:19:09;;;;;;;12.57;4.00;;;;;;;;;;5037575;28;20045;-62
2022/08/22 02:21:44;;;;;;;7.57;3.90;;;;;;;;;;4998574;28;20144;-62
2022/08/22 02:24:26;;;;;;;16.30;4.50;;;;;;;;;;5036707;28;20041;-62
2022/08/22 02:27:04;;;;;;;7.57;3.97;;;;;;;;;;5052295;28;20052;-62
2022/08/22 02:29:42;;;;;;;14.80;4.03;;;;;;;;;;5055321;28;20079;-61
2022/08/22 02:32:21;;;;;;;9.95;4.35;;;;;;;;;;5056390;28;20251;-61
2022/08/22 02:35:08;;;;;;;11.68;4.53;;;;;;;;;;5055704;28;20037;-62
2022/08/22 02:37:42;;;;;;;11.82;4.50;;;;;;;;;;5055732;28;20080;-61
2022/08/22 02:40:35;;;;;;;10.77;4.93;;;;;;;;;;5037928;28;20307;-62
2022/08/22 02:43:19;;;;;;;12.15;4.80;;;;;;;;;;5051165;28;20059;-62
2022/08/22 02:45:52;;;;;;;12.73;4.70;;;;;;;;;;5055757;28;20037;-62
2022/08/22 02:48:33;;;;;;;12.13;5.25;;;;;;;;;;5055899;28;20124;-62
2022/08/22 02:51:08;;;;;;;8.67;4.73;;;;;;;;;;5055412;28;20159;-62
2022/08/22 02:53:54;;;;;;;11.23;5.57;;;;;;;;;;5055272;28;20280;-62
2022/08/22 02:56:23;;;;;;;7.85;4.35;;;;;;;;;;5055325;28;20151;-62
2022/08/22 02:58:52;;;;;;;8.13;4.32;;;;;;;;;;5055130;28;20040;-62
2022/08/22 03:01:21;;;;;;;9.60;4.70;;;;;;;;;;5050806;28;20488;-62
2022/08/22 03:03:48;;;;;;;11.65;4.53;;;;;;;;;;5035089;28;20068;-62
2022/08/22 03:06:31;;;;;;;11.23;4.43;;;;;;;;;;5034659;28;20037;-62
2022/08/22 03:09:00;;;;;;;11.27;4.75;;;;;;;;;;5035894;28;20057;-62
2022/08/22 03:11:28;;;;;;;13.10;4.82;;;;;;;;;;5035462;28;20138;-62
2022/08/22 03:14:30;;;;;;;13.02;5.03;;;;;;;;;;5035157;28;20037;-62
2022/08/22 03:17:17;;;;;;;9.32;4.18;;;;;;;;;;4935582;29;20483;-62
2022/08/22 03:19:53;;;;;;;8.98;4.57;;;;;;;;;;5028538;28;20080;-63
2022/08/22 03:22:28;;;;;;;10.70;4.50;;;;;;;;;;5034448;28;20508;-62
2022/08/22 03:25:15;;;;;;;8.48;4.38;;;;;;;;;;5034516;28;20052;-62
2022/08/22 03:27:42;;;;;;;7.70;4.20;;;;;;;;;;5017295;28;20076;-62
2022/08/22 03:30:15;;;;;;;9.25;4.78;;;;;;;;;;5035145;28;20404;-62
2022/08/22 03:32:50;;;;;;;12.10;4.72;;;;;;;;;;5034954;28;20041;-62
2022/08/22 03:35:24;;;;;;;8.13;4.15;;;;;;;;;;5035093;28;20044;-62
2022/08/22 03:37:53;;;;;;;11.52;4.72;;;;;;;;;;5035316;28;20030;-62
2022/08/22 03:40:19;;;;;;;8.50;4.30;;;;;;;;;;5035706;28;20403;-62
2022/08/22 03:43:03;;;;;;;13.32;4.43;;;;;;;;;;5036343;28;20124;-62
2022/08/22 03:45:29;;;;;;;8.77;4.15;;;;;;;;;;5036100;28;20048;-62
2022/08/22 03:48:14;;;;;;;10.40;4.30;;;;;;;;;;5036191;28;20037;-62
2022/08/22 03:50:49;;;;;;;10.45;4.70;;;;;;;;;;5035312;28;20038;-62
2022/08/22 03:53:41;;;;;;;10.00;4.25;;;;;;;;;;5036197;28;20116;-62
2022/08/22 03:56:10;;;;;;;10.88;4.53;;;;;;;;;;5035837;28;20041;-62
2022/08/22 03:59:00;;;;;;;10.52;4.47;;;;;;;;;;5017934;28;20045;-62
2022/08/22 04:01:30;;;;;;;9.82;4.07;;;;;;;;;;5000894;28;20132;-61
2022/08/22 04:04:17;;;;;;;6.85;3.88;;;;;;;;;;5036152;28;20506;-61
2022/08/22 04:06:43;;;;;;;7.63;3.67;;;;;;;;;;5035958;28;20478;-61
2022/08/22 04:09:18;;;;;;;10.85;4.22;;;;;;;;;;5035369;28;20045;-62
2022/08/22 04:11:45;;;;;;;11.27;4.45;;;;;;;;;;5033375;28;20130;-62
2022/08/22 04:14:14;;;;;;;9.70;4.55;;;;;;;;;;5034580;28;20095;-62
2022/08/22 04:16:40;;;;;;;9.10;4.80;;;;;;;;;;5034392;28;20041;-62
2022/08/22 04:19:26;;;;;;;11.27;4.35;;;;;;;;;;5033732;28;20041;-62
2022/08/22 04:22:02;;;;;;;8.95;4.10;;;;;;;;;;5034005;28;20656;-62
2022/08/22 04:24:47;;;;;;;7.80;4.18;;;;;;;;;;5033716;28;20037;-62
2022/08/22 04:27:36;;;;;;;9.57;4.60;;;;;;;;;;5031996;28;20049;-62
2022/08/22 04:30:21;;;;;;;10.98;5.00;;;;;;;;;;5021817;28;20110;-62
2022/08/22 04:32:54;;;;;;;10.15;4.90;;;;;;;;;;5000765;28;20480;-62
2022/08/22 04:35:23;;;;;;;8.27;4.32;;;;;;;;;;5032315;28;20049;-62
2022/08/22 04:37:53;;;;;;;12.15;4.60;;;;;;;;;;5033552;28;20053;-62
2022/08/22 04:40:38;;;;;;;12.98;5.07;;;;;;;;;;5032387;28;20049;-62
2022/08/22 04:43:10;;;;;;;15.68;7.55;;;;;;;;;;5032730;28;20091;-62
2022/08/22 04:45:43;;;;;;;14.68;6.10;;;;;;;;;;5033211;28;20080;-62
2022/08/22 04:48:12;;;;;;;10.70;5.70;;;;;;;;;;5032214;28;20048;-62
2022/08/22 04:50:38;;;;;;;13.38;6.95;;;;;;;;;;5033345;28;20041;-62
2022/08/22 04:53:14;;;;;;;17.10;6.65;;;;;;;;;;5032176;28;20045;-62
2022/08/22 04:55:55;;;;;;;14.55;5.63;;;;;;;;;;5032304;28;20052;-62
2022/08/22 04:58:33;;;;;;;10.85;5.63;;;;;;;;;;5032433;28;20048;-62
2022/08/22 05:01:06;;;;;;;12.40;6.25;;;;;;;;;;5033940;28;20090;-62
2022/08/22 05:03:32;;;;;;;;;;;;;;;;;;5052001;28;20048;-62
2022/08/22 05:06:00;;;;;;;12.25;5.30;;;;;;;;;;5046514;28;19940;-62
2022/08/22 05:08:29;;;;;;;12.43;5.10;;;;;;;;;;5012976;28;20054;-62
2022/08/22 05:10:56;;;;;;;14.05;4.93;;;;;;;;;;5052989;28;20120;-62
2022/08/22 05:13:24;;;;;;;10.75;5.03;;;;;;;;;;5040816;28;20163;-62
2022/08/22 05:15:53;;;;;;;12.20;4.82;;;;;;;;;;5033944;28;20060;-62
2022/08/22 05:18:21;;;;;;;13.68;5.20;;;;;;;;;;5034007;28;20045;-62
2022/08/22 05:20:48;;;;;;;13.18;4.50;;;;;;;;;;5041759;28;20502;-62
2022/08/22 05:23:19;;;;;;;10.63;4.70;;;;;;;;;;5054012;28;20090;-62
2022/08/22 05:25:46;;;;;;;10.90;4.97;;;;;;;;;;5044235;28;20426;-62
2022/08/22 05:28:32;;;;;;;14.55;5.10;;;;;;;;;;5054354;28;20142;-62
2022/08/22 05:31:00;;;;;;;14.38;5.47;;;;;;;;;;5056612;28;20040;-62
2022/08/22 05:33:35;;;;;;;12.73;4.50;;;;;;;;;;5043476;28;20451;-62
2022/08/22 05:36:22;;;;;;;12.30;4.57;;;;;;;;;;5035616;28;20076;-62
2022/08/22 05:38:54;;;;;;;10.20;4.63;;;;;;;;;;5052527;28;20391;-60
2022/08/22 05:41:22;;;;;;;13.38;5.10;;;;;;;;;;5049548;28;20507;-61
2022/08/22 05:43:49;;;;;;;18.40;4.70;;;;;;;;;;5054556;28;20048;-61
2022/08/22 05:46:20;;;;;;;13.10;5.03;;;;;;;;;;5035411;28;20034;-61
2022/08/22 05:48:52;;;;;;;11.37;4.33;;;;;;;;;;5034203;28;20056;-60
2022/08/22 05:51:22;;;;;;;11.88;4.30;;;;;;;;;;5034696;28;20475;-59
2022/08/22 05:53:51;;;;;;;11.50;4.70;;;;;;;;;;5034673;28;20053;-60
2022/08/22 05:56:28;;;;;;;6.88;4.25;;;;;;;;;;5036019;28;20095;-59
2022/08/22 05:59:23;;;;;;;10.85;4.78;;;;;;;;;;5054557;28;20391;-60
2022/08/22 06:02:05;;;;;;;11.60;4.90;;;;;;;;;;5018292;28;20053;-61
2022/08/22 06:04:57;;;;;;;13.63;5.63;;;;;;;;;;5041661;28;20041;-63
2022/08/22 06:07:24;;;;;;;;;;;;;;;;;;5031435;28;20061;-63
2022/08/22 06:10:09;;;;;;;12.80;4.88;;;;;;;;;;5039193;28;19936;-62
2022/08/22 06:12:42;;;;;;;17.50;5.55;;;;;;;;;;5035305;28;20053;-63
2022/08/22 06:15:21;;;;;;;14.52;4.88;;;;;;;;;;5035049;28;20476;-62
2022/08/22 06:18:09;;;;;;;10.65;4.05;;;;;;;;;;5047265;28;20615;-63
2022/08/22 06:20:44;;;;;;;13.55;5.13;;;;;;;;;;5043639;28;20073;-62
2022/08/22 06:23:14;;;;;;;9.13;4.00;;;;;;;;;;5040220;28;20522;-64
2022/08/22 06:25:42;;;;;;;13.32;4.22;;;;;;;;;;5042687;28;20364;-64
2022/08/22 06:28:11;;;;;;;13.07;4.60;;;;;;;;;;5053310;28;20044;-64
2022/08/22 06:30:38;;;;;;;11.82;4.25;;;;;;;;;;5053120;28;20136;-63
2022/08/22 06:33:11;;;;;;;9.25;4.72;;;;;;;;;;5040165;28;20044;-63
2022/08/22 06:38:32;;;;;;;11.43;4.43;;;;;;;;;;5030022;28;20399;-62
2022/08/22 06:41:00;;;;;;;13.52;4.88;;;;;;;;;;5045965;28;20051;-62
2022/08/22 06:43:26;;;;;;;13.05;4.43;;;;;;;;;;5036911;28;20033;-62
2022/08/22 06:45:52;;;;;;;12.32;5.25;;;;;;;;;;5044030;28;20435;-63
2022/08/22 06:48:22;;;;;;;9.05;4.35;;;;;;;;;;5041776;28;20041;-63
2022/08/22 06:50:51;;;;;;;16.05;4.78;;;;;;;;;;5031162;28;20041;-62
2022/08/22 06:53:23;;;;;;;13.90;4.70;;;;;;;;;;5046539;28;20102;-62
2022/08/22 06:55:49;;;;;;;;;;;;;;;;;;5044904;28;20052;-62
2022/08/22 06:58:20;;;;;;;9.98;4.45;;;;;;;;;;5036680;28;19917;-62
2022/08/22 07:00:47;;;;;;;13.82;4.45;;;;;;;;;;5042232;28;20073;-62
2022/08/22 07:03:30;;;;;;;12.10;4.85;;;;;;;;;;5033893;28;20045;-62
2022/08/22 07:05:57;;;;;;;13.68;4.90;;;;;;;;;;5034872;28;20412;-61
2022/08/22 07:08:24;;;;;;;10.93;5.45;;;;;;;;;;5022741;28;20054;-62
2022/08/22 07:11:09;;;;;;;18.58;5.05;;;;;;;;;;5052788;28;20120;-62
2022/08/22 07:13:37;;;;;;;15.10;4.88;;;;;;;;;;5051826;28;20041;-61
2022/08/22 07:16:06;;;;;;;19.50;5.07;;;;;;;;;;5036765;28;20041;-62
2022/08/22 07:18:32;;;;;;;9.23;4.80;;;;;;;;;;5052575;28;20037;-62
2022/08/22 07:21:01;;;;;;;21.42;4.85;;;;;;;;;;5037241;28;20065;-62
2022/08/22 07:23:33;;;;;;;9.45;4.43;;;;;;;;;;5041118;28;20399;-63
2022/08/22 07:26:23;;;;;;;15.15;4.55;;;;;;;;;;5043912;28;20037;-62
2022/08/22 07:28:55;;;;;;;12.32;4.90;;;;;;;;;;4993722;28;20053;-63
2022/08/22 07:31:21;;;;;;;12.65;4.38;;;;;;;;;;5031479;28;20395;-63
2022/08/22 07:33:52;;;;;;;12.77;3.80;;;;;;;;;;5043483;28;20052;-63
2022/08/22 07:36:21;;;;;;;12.02;3.85;;;;;;;;;;5041775;28;20051;-64
2022/08/22 07:38:52;;;;;;;13.20;3.58;;;;;;;;;;5034990;28;20041;-63
2022/08/22 07:41:33;;;;;;;10.38;4.22;;;;;;;;;;5032616;28;20043;-63
2022/08/22 07:44:07;;;;;;;9.45;3.83;;;;;;;;;;5048975;28;20436;-63
2022/08/22 07:46:36;;;;;;;11.60;3.80;;;;;;;;;;5044878;28;20037;-63
2022/08/22 07:49:12;;;;;;;12.65;3.67;;;;;;;;;;5033639;28;20049;-64
2022/08/22 07:51:43;;;;;;;12.27;3.33;;;;;;;;;;5011807;28;20049;-61
2022/08/22 07:54:12;;;;;;;9.07;3.03;;;;;;;;;;5042112;28;20048;-62
2022/08/22 07:56:51;;;;;;;11.43;3.47;;;;;;;;;;5040080;28;20037;-62
2022/08/22 07:59:18;;;;;;;12.10;3.30;;;;;;;;;;5032994;28;20041;-63
2022/08/22 08:01:45;;;;;;;10.82;2.92;;;;;;;;;;5046793;28;20041;-63
2022/08/22 08:04:14;;;;;;;10.55;3.42;;;;;;;;;;5043195;28;20059;-62
2022/08/22 08:06:40;;;;;;;9.35;3.38;;;;;;;;;;5042051;28;20084;-63
2022/08/22 08:09:08;;;;;;;15.65;3.53;;;;;;;;;;5038516;28;20045;-63
2022/08/22 08:11:38;;;;;;;8.30;3.00;;;;;;;;;;5045310;28;20091;-62
2022/08/22 08:14:06;;;;;;;13.77;3.55;;;;;;;;;;5049338;28;20045;-64
2022/08/22 08:16:50;;;;;;;12.27;4.45;;;;;;;;;;5032594;28;20071;-63
2022/08/22 08:19:17;;;;;;;18.23;3.78;;;;;;;;;;5030845;28;20046;-63
2022/08/22 08:21:48;;;;;;;10.13;3.38;;;;;;;;;;5034868;28;20042;-64
2022/08/22 08:24:15;;;;;;;10.27;3.53;;;;;;;;;;5045475;28;20112;-63
2022/08/22 08:29:29;;;;;;;11.00;3.10;;;;;;;;;;5049538;28;20077;-63
2022/08/22 08:31:55;;;;;;;9.60;3.40;;;;;;;;;;5041256;28;20036;-63
2022/08/22 08:34:23;;;;;;;11.20;3.50;;;;;;;;;;5043405;28;20047;-61
2022/08/22 08:37:09;;;;;;;13.18;3.30;;;;;;;;;;5049379;28;20761;-61
2022/08/22 08:39:37;;;;;;;19.05;3.25;;;;;;;;;;5046884;28;20161;-61
2022/08/22 08:42:15;;;;;;;11.93;3.03;;;;;;;;;;5011896;28;20049;-62
2022/08/22 08:44:48;;;;;;;14.80;3.53;;;;;;;;;;5043270;28;20116;-63
2022/08/22 08:47:14;;;;;;;13.00;4.68;;;;;;;;;;5030194;28;20041;-63
2022/08/22 08:49:40;;;;;;;8.95;3.00;;;;;;;;;;5038811;28;20533;-63
2022/08/22 08:52:10;;;;;;;8.63;2.65;;;;;;;;;;5043375;28;20671;-62
2022/08/22 08:54:57;;;;;;;8.98;2.55;;;;;;;;;;5035819;28;20044;-62
2022/08/22 08:57:42;;;;;;;12.30;3.03;;;;;;;;;;5042391;28;20041;-61
2022/08/22 09:00:13;;;;;;;10.45;2.53;;;;;;;;;;5050861;28;20090;-61
2022/08/22 09:02:45;;;;;;;9.68;2.67;;;;;;;;;;5046311;28;20107;-62
2022/08/22 09:05:25;;;;;;;10.35;3.33;;;;;;;;;;5044627;28;20048;-62
2022/08/22 09:08:11;;;;;;;8.32;2.50;;;;;;;;;;5033241;28;20053;-62
2022/08/22 09:10:56;;;;;;;10.38;3.10;;;;;;;;;;5032808;28;20071;-62
2022/08/22 09:13:28;;;;;;;10.70;2.85;;;;;;;;;;5042783;28;20048;-62
2022/08/22 09:16:08;;;;;;;9.48;2.63;;;;;;;;;;5045903;28;20041;-63
2022/08/22 09:18:49;;;;;;;10.07;3.05;;;;;;;;;;5035016;28;20033;-64
2022/08/22 09:21:18;;;;;;;14.55;3.35;;;;;;;;;;5043310;28;20044;-62
2022/08/22 09:24:04;;;;;;;11.20;2.97;;;;;;;;;;5044093;28;20044;-62
2022/08/22 09:26:40;;;;;;;11.13;3.17;;;;;;;;;;5044353;28;20044;-63
2022/08/22 09:29:06;;;;;;;12.30;3.28;;;;;;;;;;5035071;28;20043;-64
2022/08/22 09:31:35;;;;;;;10.18;3.53;;;;;;;;;;5041003;28;20053;-64
2022/08/22 09:34:07;;;;;;;15.98;3.28;;;;;;;;;;5048993;28;20041;-64
2022/08/22 09:36:47;;;;;;;12.30;3.15;;;;;;;;;;5047442;28;20090;-63
2022/08/22 09:39:13;;;;;;;13.88;3.17;;;;;;;;;;5030181;28;20081;-63
2022/08/22 09:41:43;;;;;;;8.07;3.20;;;;;;;;;;5034230;28;20119;-64
2022/08/22 09:44:19;;;;;;;13.45;3.63;;;;;;;;;;5014552;28;20981;-63
2022/08/22 09:47:04;;;;;;;11.85;2.60;;;;;;;;;;5048294;28;20126;-63
2022/08/22 09:49:45;;;;;;;8.15;2.70;;;;;;;;;;5030425;28;20084;-63
2022/08/22 09:52:30;;;;;;;15.68;2.88;;;;;;;;;;5040608;28;20041;-63
2022/08/22 09:55:02;;;;;;;12.55;3.28;;;;;;;;;;5028977;28;20164;-63
2022/08/22 09:57:37;;;;;;;8.68;2.22;;;;;;;;;;5043867;28;20135;-63
2022/08/22 10:00:08;;;;;;;12.48;3.50;;;;;;;;;;5051798;28;20045;-63
2022/08/22 10:02:43;;;;;;;10.83;3.57;;;;;;;;;;5019161;28;20395;-64
2022/08/22 10:05:09;;;;;;;10.02;2.55;;;;;;;;;;5037235;28;20075;-63
2022/08/22 10:07:36;;;;;;;12.35;3.40;;;;;;;;;;5039073;28;20163;-62
2022/08/22 10:10:21;;;;;;;11.57;2.53;;;;;;;;;;5035282;28;20037;-62
2022/08/22 10:13:09;;;;;;;10.35;2.22;;;;;;;;;;5046290;28;20048;-62
2022/08/22 10:15:38;;;;;;;13.75;3.10;;;;;;;;;;5034278;28;20041;-63
2022/08/22 10:18:10;;;;;;;9.75;2.85;;;;;;;;;;5051259;28;20387;-61
2022/08/22 10:20:46;;;;;;;6.47;2.25;;;;;;;;;;5047743;28;20091;-62
2022/08/22 10:23:19;;;;;;;8.68;2.40;;;;;;;;;;5050940;28;20045;-63
2022/08/22 10:25:54;;;;;;;8.60;2.60;;;;;;;;;;5047116;28;20037;-62
2022/08/22 10:28:20;;;;;;;11.50;3.28;;;;;;;;;;5033081;28;20040;-61
2022/08/22 10:30:56;;;;;;;10.88;2.50;;;;;;;;;;5036015;28;20399;-62
2022/08/22 10:33:33;;;;;;;8.60;2.67;;;;;;;;;;5035667;28;20049;-62
2022/08/22 10:36:02;;;;;;;10.55;2.58;;;;;;;;;;5040848;28;20167;-62
2022/08/22 10:38:28;;;;;;;6.75;2.00;;;;;;;;;;5037183;28;20088;-62
2022/08/22 10:41:17;;;;;;;9.05;2.28;;;;;;;;;;5032606;28;20049;-62
2022/08/22 10:43:55;;;;;;;4.25;1.65;;;;;;;;;;5020288;28;20064;-62
2022/08/22 10:46:41;;;;;;;7.93;2.42;;;;;;;;;;5034308;28;20117;-62
2022/08/22 10:49:20;;;;;;;12.15;3.08;;;;;;;;;;5042007;28;20037;-62
2022/08/22 10:51:48;;;;;;;8.38;2.33;;;;;;;;;;5033473;28;20052;-62
2022/08/22 10:54:17;;;;;;;10.23;3.45;;;;;;;;;;5034645;28;20064;-62
2022/08/22 10:56:47;;;;;;;8.80;2.53;;;;;;;;;;5046541;28;20044;-62
2022/08/22 10:59:31;;;;;;;8.57;3.10;;;;;;;;;;5050904;28;20060;-62
2022/08/22 11:02:00;;;;;;;8.52;2.42;;;;;;;;;;5045406;28;20037;-62
2022/08/22 11:04:33;;;;;;;11.65;3.03;;;;;;;;;;5038804;28;20037;-62
2022/08/22 11:07:19;;;;;;;7.47;2.38;;;;;;;;;;5039334;28;20745;-61
2022/08/22 11:09:51;;;;;;;7.07;2.30;;;;;;;;;;5040101;28;20086;-61
2022/08/22 11:12:18;;;;;;;6.47;2.37;;;;;;;;;;5015514;28;20145;-60
2022/08/22 11:14:43;;;;;;;9.52;2.30;;;;;;;;;;5039010;28;20436;-60
2022/08/22 11:17:36;;;;;;;8.93;2.55;;;;;;;;;;5035216;28;20091;-61
2022/08/22 11:20:05;;;;;;;;;;;;;;;;;;5014265;28;20135;-61
2022/08/22 11:22:32;;;;;;;8.95;2.22;;;;;;;;;;5036405;28;19924;-61
2022/08/22 11:25:24;;;;;;;5.65;1.83;;;;;;;;;;5037294;28;20041;-61
2022/08/22 11:27:50;;;;;;;;;;;;;;;;;;5035222;28;20045;-62
2022/08/22 11:30:19;;;;;;;6.88;1.98;;;;;;;;;;5039926;28;19917;-61
2022/08/22 11:32:48;;;;;;;7.45;2.45;;;;;;;;;;5039584;28;20048;-61
2022/08/22 11:35:20;;;;;;;8.10;2.40;;;;;;;;;;5038677;28;20104;-61
2022/08/22 11:38:12;;;;;;;6.97;2.00;;;;;;;;;;5037389;28;20041;-60
2022/08/22 11:40:45;;;;;;;8.95;2.00;;;;;;;;;;5025288;28;20057;-60
2022/08/22 11:43:31;;;;;;;9.10;2.35;;;;;;;;;;5037112;28;20463;-60
2022/08/22 11:45:59;;;;;;;10.65;3.22;;;;;;;;;;5000076;28;20045;-60
2022/08/22 11:48:48;;;;;;;10.35;2.03;;;;;;;;;;5034549;28;20045;-61
2022/08/22 11:51:33;;;;;;;6.13;1.90;;;;;;;;;;5036388;28;20060;-60
2022/08/22 11:54:16;;;;;;;6.00;2.00;;;;;;;;;;5038252;28;20106;-60
2022/08/22 11:56:47;;;;;;;8.07;2.53;;;;;;;;;;5036792;28;20136;-62
2022/08/22 11:59:16;;;;;;;7.82;2.47;;;;;;;;;;5038629;28;20537;-62
2022/08/22 12:01:49;;;;;;;6.80;2.10;;;;;;;;;;5047078;28;20099;-62
2022/08/22 12:04:32;;;;;;;7.63;1.90;;;;;;;;;;5046630;28;20067;-62
2022/08/22 12:07:01;;;;;;;7.05;1.90;;;;;;;;;;5040635;28;20110;-60
2022/08/22 12:09:34;;;;;;;7.32;1.95;;;;;;;;;;5040186;28;20049;-59
2022/08/22 12:12:18;;;;;;;7.80;1.90;;;;;;;;;;5029583;28;20037;-61
2022/08/22 12:14:45;;;;;;;9.05;2.25;;;;;;;;;;5036985;28;20440;-61
2022/08/22 12:17:12;;;;;;;7.22;1.88;;;;;;;;;;5039115;28;20553;-59
2022/08/22 12:19:50;;;;;;;4.90;1.90;;;;;;;;;;5036602;28;20076;-60
2022/08/22 12:22:28;;;;;;;7.25;2.30;;;;;;;;;;5037651;28;20049;-62
2022/08/22 12:25:00;;;;;;;8.40;2.08;;;;;;;;;;5041847;28;20033;-61
2022/08/22 12:27:36;;;;;;;8.45;2.33;;;;;;;;;;5033549;28;20075;-60
2022/08/22 12:30:17;;;;;;;5.85;1.88;;;;;;;;;;5037798;28;20032;-60
2022/08/22 12:32:47;;;;;;;7.75;2.20;;;;;;;;;;5034179;28;20060;-61
2022/08/22 12:35:26;;;;;;;9.98;1.98;;;;;;;;;;5029151;28;20120;-60
2022/08/22 12:38:11;;;;;;;6.13;2.50;;;;;;;;;;5037264;28;20040;-61
2022/08/22 12:40:37;;;;;;;7.53;2.08;;;;;;;;;;5044573;28;20530;-61
2022/08/22 12:43:22;;;;;;;10.15;2.10;;;;;;;;;;5030988;28;20033;-61
2022/08/22 12:45:48;;;;;;;6.60;1.70;;;;;;;;;;5038639;28;20411;-61
2022/08/22 12:48:33;;;;;;;7.60;2.42;;;;;;;;;;5033247;28;20045;-59
2022/08/22 12:51:17;;;;;;;11.55;2.25;;;;;;;;;;5034412;28;20766;-61
2022/08/22 12:53:43;;;;;;;8.63;1.95;;;;;;;;;;5029769;28;20041;-62
2022/08/22 12:56:28;;;;;;;6.90;2.15;;;;;;;;;;5030418;28;20041;-62
2022/08/22 12:59:12;;;;;;;8.10;2.22;;;;;;;;;;5042528;28;20094;-61
2022/08/22 13:01:46;;;;;;;6.95;1.83;;;;;;;;;;5043939;28;20124;-61
2022/08/22 13:04:18;;;;;;;7.15;2.25;;;;;;;;;;5048065;28;20502;-61
2022/08/22 13:06:44;;;;;;;;;;;;;;;;;;5043065;28;20045;-62
2022/08/22 13:09:17;;;;;;;11.00;2.08;;;;;;;;;;5040532;28;19971;-61
2022/08/22 13:11:44;;;;;;;6.88;1.95;;;;;;;;;;5035664;28;20040;-61
2022/08/22 13:14:11;;;;;;;10.35;2.63;;;;;;;;;;5045072;28;20042;-61
2022/08/22 13:16:40;;;;;;;6.47;2.17;;;;;;;;;;5049376;28;20036;-62
2022/08/22 13:19:11;;;;;;;5.72;2.08;;;;;;;;;;5032073;28;20037;-61
2022/08/22 13:21:39;;;;;;;7.45;1.73;;;;;;;;;;5030221;28;20068;-61
2022/08/22 13:24:07;;;;;;;6.45;1.90;;;;;;;;;;5037671;28;20102;-61
2022/08/22 13:26:33;;;;;;;3.22;1.63;;;;;;;;;;5040976;28;20687;-61
2022/08/22 13:28:59;;;;;;;10.75;2.40;;;;;;;;;;5035058;28;20033;-60
2022/08/22 13:31:27;;;;;;;12.00;2.10;;;;;;;;;;5028192;28;20064;-61
2022/08/22 13:34:13;;;;;;;9.18;2.28;;;;;;;;;;5039997;28;20064;-62
2022/08/22 13:36:41;;;;;;;7.70;1.95;;;;;;;;;;5028952;28;20140;-60
2022/08/22 13:39:13;;;;;;;6.68;1.70;;;;;;;;;;5047706;28;20051;-61
2022/08/22 13:41:50;;;;;;;6.47;2.30;;;;;;;;;;5036861;28;20139;-61
2022/08/22 13:44:19;;;;;;;7.00;2.10;;;;;;;;;;5043272;28;20045;-60
2022/08/22 13:46:45;;;;;;;9.25;2.22;;;;;;;;;;5041782;28;20037;-61
2022/08/22 13:49:16;;;;;;;6.25;2.03;;;;;;;;;;5042104;28;20087;-61
2022/08/22 13:51:46;;;;;;;6.72;2.30;;;;;;;;;;5043235;28;20041;-62
2022/08/22 13:54:15;;;;;;;5.13;1.80;;;;;;;;;;5041069;28;20072;-61
2022/08/22 13:56:41;;;;;;;7.93;2.55;;;;;;;;;;5041375;28;20033;-61
2022/08/22 13:59:13;;;;;;;9.40;1.90;;;;;;;;;;5046505;28;20064;-61
2022/08/22 14:02:08;;;;;;;5.45;2.05;;;;;;;;;;5040927;28;20368;-61
2022/08/22 14:04:36;;;;;;;5.53;1.75;;;;;;;;;;5030848;28;20064;-61
2022/08/22 14:07:05;;;;;;;5.90;2.08;;;;;;;;;;5047342;28;20369;-61
2022/08/22 14:09:37;;;;;;;7.72;2.20;;;;;;;;;;5020512;28;20037;-61
2022/08/22 14:12:07;;;;;;;4.78;1.92;;;;;;;;;;5038195;28;20568;-62
2022/08/22 14:14:34;;;;;;;8.07;2.25;;;;;;;;;;5052121;28;20055;-62
2022/08/22 14:17:01;;;;;;;5.45;1.75;;;;;;;;;;5046182;28;20121;-61
2022/08/22 14:19:30;;;;;;;5.80;1.77;;;;;;;;;;5044000;28;20045;-62
2022/08/22 14:21:56;;;;;;;5.28;1.80;;;;;;;;;;5040043;28;20080;-62
2022/08/22 14:24:41;;;;;;;5.97;1.80;;;;;;;;;;5042311;28;20045;-62
2022/08/22 14:27:09;;;;;;;8.80;2.03;;;;;;;;;;5038042;28;20128;-62
2022/08/22 14:29:41;;;;;;;5.88;1.80;;;;;;;;;;5042589;28;20038;-62
2022/08/22 14:32:07;;;;;;;7.50;1.80;;;;;;;;;;5033471;28;20045;-62
2022/08/22 14:34:35;;;;;;;9.07;1.70;;;;;;;;;;5032570;28;20409;-62
2022/08/22 14:37:11;;;;;;;7.32;2.10;;;;;;;;;;5032949;28;20395;-62
2022/08/22 14:39:42;;;;;;;6.60;1.95;;;;;;;;;;5017136;28;20057;-62
2022/08/22 14:42:14;;;;;;;8.80;2.17;;;;;;;;;;5046263;28;20038;-61
2022/08/22 14:44:39;;;;;;;;;;;;;;;;;;5042393;28;20148;-62
2022/08/22 14:47:09;;;;;;;4.32;1.90;;;;;;;;;;5033019;28;20028;-62
2022/08/22 14:49:35;;;;;;;8.88;2.10;;;;;;;;;;5032522;28;20037;-61
2022/08/22 14:52:08;;;;;;;9.05;2.13;;;;;;;;;;5035214;28;20514;-60
2022/08/22 14:54:35;;;;;;;8.75;2.20;;;;;;;;;;5035629;28;20418;-60
2022/08/22 14:57:03;;;;;;;7.38;2.08;;;;;;;;;;5035466;28;20041;-60
2022/08/22 14:59:44;;;;;;;4.72;2.00;;;;;;;;;;5035081;28;20038;-60
2022/08/22 15:02:10;;;;;;;7.70;2.17;;;;;;;;;;5049350;28;20077;-60
2022/08/22 15:04:38;;;;;;;6.00;2.63;;;;;;;;;;5046862;28;20587;-61
2022/08/22 15:07:05;;;;;;;7.90;2.40;;;;;;;;;;5035381;28;20088;-61
2022/08/22 15:09:33;;;;;;;6.18;2.03;;;;;;;;;;5035174;28;20073;-61
2022/08/22 15:12:00;;;;;;;6.07;2.50;;;;;;;;;;5038520;28;20086;-60
2022/08/22 15:14:29;;;;;;;10.18;2.05;;;;;;;;;;5055598;28;20048;-60
2022/08/22 15:16:57;;;;;;;8.10;2.53;;;;;;;;;;5054951;28;20040;-60
2022/08/22 15:19:34;;;;;;;8.55;2.55;;;;;;;;;;5054910;28;20783;-60
2022/08/22 15:22:23;;;;;;;5.82;1.90;;;;;;;;;;5055497;28;20044;-60
2022/08/22 15:25:01;;;;;;;9.93;2.03;;;;;;;;;;5031927;28;20047;-60